sensor_id;sensor_type;location;lat;lon;timestamp;P1;durP1;ratioP1;P2;durP2;ratioP2
2009;SDS011;1008;47.404;8.502;2022-08-19T00:00:46;8.67;;;5.13;;
2009;SDS011;1008;47.404;8.502;2022-08-19T00:03:12;9.17;;;5.60;;
2009;SDS011;1008;47.404;8.502;2022-08-19T00:05:40;7.97;;;4.60;;
2009;SDS011;1008;47.404;8.502;2022-08-19T00:08:07;8.47;;;5.73;;
2009;SDS011;1008;47.404;8.502;2022-08-19T00:10:34;10.13;;;6.27;;
2009;SDS011;1008;47.404;8.502;2022-08-19T00:13:00;12.20;;;6.87;;
2009;SDS011;1008;47.404;8.502;2022-08-19T00:15:29;9.20;;;6.03;;
2009;SDS011;1008;47.404;8.502;2022-08-19T00:17:56;11.77;;;6.20;;
2009;SDS011;1008;47.404;8.502;2022-08-19T00:20:23;10.77;;;6.60;;
2009;SDS011;1008;47.404;8.502;2022-08-19T00:22:52;9.90;;;6.10;;
2009;SDS011;1008;47.404;8.502;2022-08-19T00:25:19;11.17;;;6.37;;
2009;SDS011;1008;47.404;8.502;2022-08-19T00:27:46;10.50;;;6.20;;
2009;SDS011;1008;47.404;8.502;2022-08-19T00:30:12;9.93;;;6.27;;
2009;SDS011;1008;47.404;8.502;2022-08-19T00:32:40;11.50;;;6.57;;
2009;SDS011;1008;47.404;8.502;2022-08-19T00:35:07;11.10;;;6.23;;
2009;SDS011;1008;47.404;8.502;2022-08-19T00:37:35;9.33;;;6.27;;
2009;SDS011;1008;47.404;8.502;2022-08-19T00:40:04;10.70;;;6.43;;
2009;SDS011;1008;47.404;8.502;2022-08-19T00:42:32;13.97;;;7.47;;
2009;SDS011;1008;47.404;8.502;2022-08-19T00:44:59;11.13;;;7.63;;
2009;SDS011;1008;47.404;8.502;2022-08-19T00:47:26;10.27;;;6.77;;
2009;SDS011;1008;47.404;8.502;2022-08-19T00:49:54;11.73;;;6.33;;
2009;SDS011;1008;47.404;8.502;2022-08-19T00:52:23;12.70;;;7.57;;
2009;SDS011;1008;47.404;8.502;2022-08-19T00:54:52;11.70;;;6.50;;
2009;SDS011;1008;47.404;8.502;2022-08-19T00:57:22;13.73;;;6.33;;
2009;SDS011;1008;47.404;8.502;2022-08-19T00:59:54;10.03;;;6.17;;
2009;SDS011;1008;47.404;8.502;2022-08-19T01:02:23;10.50;;;6.20;;
2009;SDS011;1008;47.404;8.502;2022-08-19T01:04:51;9.00;;;5.40;;
2009;SDS011;1008;47.404;8.502;2022-08-19T01:07:17;10.40;;;6.37;;
2009;SDS011;1008;47.404;8.502;2022-08-19T01:09:44;10.97;;;5.60;;
2009;SDS011;1008;47.404;8.502;2022-08-19T01:12:11;10.30;;;6.53;;
2009;SDS011;1008;47.404;8.502;2022-08-19T01:14:39;12.80;;;7.23;;
2009;SDS011;1008;47.404;8.502;2022-08-19T01:17:10;10.17;;;6.40;;
2009;SDS011;1008;47.404;8.502;2022-08-19T01:19:39;10.60;;;7.03;;
2009;SDS011;1008;47.404;8.502;2022-08-19T01:22:08;10.50;;;6.60;;
2009;SDS011;1008;47.404;8.502;2022-08-19T01:24:41;10.23;;;6.17;;
2009;SDS011;1008;47.404;8.502;2022-08-19T01:27:08;10.60;;;6.90;;
2009;SDS011;1008;47.404;8.502;2022-08-19T01:29:37;8.33;;;5.67;;
2009;SDS011;1008;47.404;8.502;2022-08-19T01:32:06;10.90;;;6.10;;
2009;SDS011;1008;47.404;8.502;2022-08-19T01:34:34;10.10;;;5.87;;
2009;SDS011;1008;47.404;8.502;2022-08-19T01:37:05;10.77;;;6.27;;
2009;SDS011;1008;47.404;8.502;2022-08-19T01:39:35;10.43;;;6.43;;
2009;SDS011;1008;47.404;8.502;2022-08-19T01:42:04;13.17;;;7.30;;
2009;SDS011;1008;47.404;8.502;2022-08-19T01:44:32;11.30;;;6.40;;
2009;SDS011;1008;47.404;8.502;2022-08-19T01:47:01;8.37;;;5.47;;
2009;SDS011;1008;47.404;8.502;2022-08-19T01:49:29;9.73;;;6.37;;
2009;SDS011;1008;47.404;8.502;2022-08-19T01:51:56;10.87;;;6.77;;
2009;SDS011;1008;47.404;8.502;2022-08-19T01:54:23;11.47;;;6.53;;
2009;SDS011;1008;47.404;8.502;2022-08-19T01:56:50;9.60;;;6.10;;
2009;SDS011;1008;47.404;8.502;2022-08-19T01:59:20;12.67;;;6.83;;
2009;SDS011;1008;47.404;8.502;2022-08-19T02:01:50;10.73;;;6.47;;
2009;SDS011;1008;47.404;8.502;2022-08-19T02:04:16;9.80;;;5.67;;
2009;SDS011;1008;47.404;8.502;2022-08-19T02:06:43;12.93;;;6.80;;
2009;SDS011;1008;47.404;8.502;2022-08-19T02:09:10;11.07;;;7.07;;
2009;SDS011;1008;47.404;8.502;2022-08-19T02:11:37;11.60;;;6.50;;
2009;SDS011;1008;47.404;8.502;2022-08-19T02:14:05;11.20;;;6.30;;
2009;SDS011;1008;47.404;8.502;2022-08-19T02:16:34;8.50;;;5.83;;
2009;SDS011;1008;47.404;8.502;2022-08-19T02:19:02;11.70;;;7.00;;
2009;SDS011;1008;47.404;8.502;2022-08-19T02:21:30;12.97;;;7.20;;
2009;SDS011;1008;47.404;8.502;2022-08-19T02:23:57;13.37;;;7.57;;
2009;SDS011;1008;47.404;8.502;2022-08-19T02:26:24;12.00;;;6.97;;
2009;SDS011;1008;47.404;8.502;2022-08-19T02:28:52;12.57;;;7.27;;
2009;SDS011;1008;47.404;8.502;2022-08-19T02:31:21;14.53;;;6.90;;
2009;SDS011;1008;47.404;8.502;2022-08-19T02:33:51;9.77;;;5.70;;
2009;SDS011;1008;47.404;8.502;2022-08-19T02:36:18;10.80;;;6.90;;
2009;SDS011;1008;47.404;8.502;2022-08-19T02:38:45;10.80;;;7.17;;
2009;SDS011;1008;47.404;8.502;2022-08-19T02:41:12;12.10;;;6.40;;
2009;SDS011;1008;47.404;8.502;2022-08-19T02:43:41;11.77;;;7.17;;
2009;SDS011;1008;47.404;8.502;2022-08-19T02:46:12;11.97;;;6.60;;
2009;SDS011;1008;47.404;8.502;2022-08-19T02:48:42;14.60;;;6.97;;
2009;SDS011;1008;47.404;8.502;2022-08-19T02:51:16;12.07;;;6.53;;
2009;SDS011;1008;47.404;8.502;2022-08-19T02:53:44;12.80;;;7.20;;
2009;SDS011;1008;47.404;8.502;2022-08-19T02:56:10;10.30;;;6.17;;
2009;SDS011;1008;47.404;8.502;2022-08-19T02:58:37;12.00;;;6.73;;
2009;SDS011;1008;47.404;8.502;2022-08-19T03:01:04;8.67;;;6.20;;
2009;SDS011;1008;47.404;8.502;2022-08-19T03:03:31;12.53;;;7.40;;
2009;SDS011;1008;47.404;8.502;2022-08-19T03:06:09;10.00;;;6.20;;
2009;SDS011;1008;47.404;8.502;2022-08-19T03:08:39;16.33;;;7.00;;
2009;SDS011;1008;47.404;8.502;2022-08-19T03:11:12;11.27;;;5.97;;
2009;SDS011;1008;47.404;8.502;2022-08-19T03:13:39;11.73;;;7.20;;
2009;SDS011;1008;47.404;8.502;2022-08-19T03:16:08;11.80;;;6.87;;
2009;SDS011;1008;47.404;8.502;2022-08-19T03:18:35;12.40;;;8.30;;
2009;SDS011;1008;47.404;8.502;2022-08-19T03:21:02;13.43;;;6.63;;
2009;SDS011;1008;47.404;8.502;2022-08-19T03:23:29;17.30;;;8.10;;
2009;SDS011;1008;47.404;8.502;2022-08-19T03:25:58;15.77;;;8.37;;
2009;SDS011;1008;47.404;8.502;2022-08-19T03:28:25;14.97;;;8.53;;
2009;SDS011;1008;47.404;8.502;2022-08-19T03:30:55;13.50;;;7.53;;
2009;SDS011;1008;47.404;8.502;2022-08-19T03:33:23;14.10;;;8.40;;
2009;SDS011;1008;47.404;8.502;2022-08-19T03:36:01;14.97;;;8.10;;
2009;SDS011;1008;47.404;8.502;2022-08-19T03:38:32;15.53;;;8.30;;
2009;SDS011;1008;47.404;8.502;2022-08-19T03:41:06;18.60;;;8.57;;
2009;SDS011;1008;47.404;8.502;2022-08-19T03:43:35;18.77;;;10.33;;
2009;SDS011;1008;47.404;8.502;2022-08-19T03:46:03;15.90;;;8.20;;
2009;SDS011;1008;47.404;8.502;2022-08-19T03:48:32;15.83;;;8.63;;
2009;SDS011;1008;47.404;8.502;2022-08-19T03:50:59;18.07;;;9.60;;
2009;SDS011;1008;47.404;8.502;2022-08-19T03:53:27;19.20;;;10.07;;
2009;SDS011;1008;47.404;8.502;2022-08-19T03:55:56;17.00;;;9.93;;
2009;SDS011;1008;47.404;8.502;2022-08-19T03:58:26;19.40;;;9.60;;
2009;SDS011;1008;47.404;8.502;2022-08-19T04:00:53;18.43;;;9.53;;
2009;SDS011;1008;47.404;8.502;2022-08-19T04:03:21;21.50;;;9.47;;
2009;SDS011;1008;47.404;8.502;2022-08-19T04:05:49;21.30;;;10.80;;
2009;SDS011;1008;47.404;8.502;2022-08-19T04:08:16;22.20;;;10.70;;
2009;SDS011;1008;47.404;8.502;2022-08-19T04:10:45;18.97;;;11.10;;
2009;SDS011;1008;47.404;8.502;2022-08-19T04:13:12;21.30;;;10.80;;
2009;SDS011;1008;47.404;8.502;2022-08-19T04:15:41;22.27;;;10.20;;
2009;SDS011;1008;47.404;8.502;2022-08-19T04:18:11;17.67;;;10.23;;
2009;SDS011;1008;47.404;8.502;2022-08-19T04:20:40;18.07;;;9.73;;
2009;SDS011;1008;47.404;8.502;2022-08-19T04:23:08;17.70;;;10.27;;
2009;SDS011;1008;47.404;8.502;2022-08-19T04:25:36;21.20;;;10.47;;
2009;SDS011;1008;47.404;8.502;2022-08-19T04:28:04;21.43;;;10.00;;
2009;SDS011;1008;47.404;8.502;2022-08-19T04:30:36;15.33;;;8.37;;
2009;SDS011;1008;47.404;8.502;2022-08-19T04:33:05;21.43;;;10.73;;
2009;SDS011;1008;47.404;8.502;2022-08-19T04:35:36;19.33;;;10.27;;
2009;SDS011;1008;47.404;8.502;2022-08-19T04:38:04;19.63;;;10.07;;
2009;SDS011;1008;47.404;8.502;2022-08-19T04:40:31;20.27;;;9.20;;
2009;SDS011;1008;47.404;8.502;2022-08-19T04:43:15;20.60;;;10.60;;
2009;SDS011;1008;47.404;8.502;2022-08-19T04:45:42;18.87;;;8.83;;
2009;SDS011;1008;47.404;8.502;2022-08-19T04:48:11;18.20;;;8.90;;
2009;SDS011;1008;47.404;8.502;2022-08-19T04:50:39;15.00;;;8.50;;
2009;SDS011;1008;47.404;8.502;2022-08-19T04:53:07;20.60;;;10.10;;
2009;SDS011;1008;47.404;8.502;2022-08-19T04:55:34;14.83;;;8.60;;
2009;SDS011;1008;47.404;8.502;2022-08-19T04:58:04;13.97;;;8.17;;
2009;SDS011;1008;47.404;8.502;2022-08-19T05:00:31;16.77;;;8.47;;
2009;SDS011;1008;47.404;8.502;2022-08-19T05:02:58;16.90;;;7.67;;
2009;SDS011;1008;47.404;8.502;2022-08-19T05:05:27;15.20;;;8.40;;
2009;SDS011;1008;47.404;8.502;2022-08-19T05:07:54;15.50;;;7.40;;
2009;SDS011;1008;47.404;8.502;2022-08-19T05:10:20;14.30;;;7.77;;
2009;SDS011;1008;47.404;8.502;2022-08-19T05:12:47;11.77;;;7.40;;
2009;SDS011;1008;47.404;8.502;2022-08-19T05:15:14;12.30;;;7.33;;
2009;SDS011;1008;47.404;8.502;2022-08-19T05:17:41;13.47;;;8.30;;
2009;SDS011;1008;47.404;8.502;2022-08-19T05:20:29;13.07;;;7.50;;
2009;SDS011;1008;47.404;8.502;2022-08-19T05:23:14;12.93;;;7.83;;
2009;SDS011;1008;47.404;8.502;2022-08-19T05:25:42;12.77;;;7.53;;
2009;SDS011;1008;47.404;8.502;2022-08-19T05:28:09;12.37;;;7.53;;
2009;SDS011;1008;47.404;8.502;2022-08-19T05:30:36;12.30;;;7.00;;
2009;SDS011;1008;47.404;8.502;2022-08-19T05:33:02;12.60;;;7.60;;
2009;SDS011;1008;47.404;8.502;2022-08-19T05:35:31;9.70;;;6.60;;
2009;SDS011;1008;47.404;8.502;2022-08-19T05:37:57;9.50;;;6.60;;
2009;SDS011;1008;47.404;8.502;2022-08-19T05:40:24;10.63;;;5.73;;
2009;SDS011;1008;47.404;8.502;2022-08-19T05:42:51;14.20;;;7.10;;
2009;SDS011;1008;47.404;8.502;2022-08-19T05:45:18;13.43;;;7.53;;
2009;SDS011;1008;47.404;8.502;2022-08-19T05:47:46;11.00;;;6.40;;
2009;SDS011;1008;47.404;8.502;2022-08-19T05:50:13;10.00;;;6.27;;
2009;SDS011;1008;47.404;8.502;2022-08-19T05:52:43;10.20;;;6.07;;
2009;SDS011;1008;47.404;8.502;2022-08-19T05:55:10;8.70;;;5.50;;
2009;SDS011;1008;47.404;8.502;2022-08-19T05:57:39;11.77;;;7.10;;
2009;SDS011;1008;47.404;8.502;2022-08-19T06:00:06;10.30;;;6.23;;
2009;SDS011;1008;47.404;8.502;2022-08-19T06:02:35;11.30;;;5.73;;
2009;SDS011;1008;47.404;8.502;2022-08-19T06:05:02;13.27;;;7.97;;
2009;SDS011;1008;47.404;8.502;2022-08-19T06:07:34;12.93;;;7.63;;
2009;SDS011;1008;47.404;8.502;2022-08-19T06:10:03;11.13;;;6.47;;
2009;SDS011;1008;47.404;8.502;2022-08-19T06:12:31;9.03;;;6.47;;
2009;SDS011;1008;47.404;8.502;2022-08-19T06:14:59;10.20;;;6.73;;
2009;SDS011;1008;47.404;8.502;2022-08-19T06:17:26;12.20;;;6.37;;
2009;SDS011;1008;47.404;8.502;2022-08-19T06:19:55;14.83;;;7.70;;
2009;SDS011;1008;47.404;8.502;2022-08-19T06:22:22;10.63;;;6.40;;
2009;SDS011;1008;47.404;8.502;2022-08-19T06:24:48;8.90;;;6.33;;
2009;SDS011;1008;47.404;8.502;2022-08-19T06:27:19;12.83;;;7.07;;
2009;SDS011;1008;47.404;8.502;2022-08-19T06:29:46;11.10;;;7.27;;
2009;SDS011;1008;47.404;8.502;2022-08-19T06:32:13;12.20;;;6.37;;
2009;SDS011;1008;47.404;8.502;2022-08-19T06:34:41;14.03;;;6.80;;
2009;SDS011;1008;47.404;8.502;2022-08-19T06:37:08;10.57;;;6.47;;
2009;SDS011;1008;47.404;8.502;2022-08-19T06:39:37;10.43;;;7.00;;
2009;SDS011;1008;47.404;8.502;2022-08-19T06:42:06;9.70;;;5.53;;
2009;SDS011;1008;47.404;8.502;2022-08-19T06:44:38;11.17;;;6.43;;
2009;SDS011;1008;47.404;8.502;2022-08-19T06:47:06;10.97;;;6.80;;
2009;SDS011;1008;47.404;8.502;2022-08-19T06:49:35;13.10;;;7.97;;
2009;SDS011;1008;47.404;8.502;2022-08-19T06:52:02;12.13;;;7.23;;
2009;SDS011;1008;47.404;8.502;2022-08-19T06:54:30;15.60;;;8.33;;
2009;SDS011;1008;47.404;8.502;2022-08-19T06:56:56;12.77;;;8.10;;
2009;SDS011;1008;47.404;8.502;2022-08-19T06:59:27;13.50;;;7.97;;
2009;SDS011;1008;47.404;8.502;2022-08-19T07:01:58;11.80;;;7.33;;
2009;SDS011;1008;47.404;8.502;2022-08-19T07:04:27;12.47;;;7.17;;
2009;SDS011;1008;47.404;8.502;2022-08-19T07:06:56;11.87;;;7.43;;
2009;SDS011;1008;47.404;8.502;2022-08-19T07:09:25;11.63;;;7.00;;
2009;SDS011;1008;47.404;8.502;2022-08-19T07:11:52;12.40;;;7.23;;
2009;SDS011;1008;47.404;8.502;2022-08-19T07:14:21;12.23;;;6.60;;
2009;SDS011;1008;47.404;8.502;2022-08-19T07:16:50;12.40;;;7.17;;
2009;SDS011;1008;47.404;8.502;2022-08-19T07:19:21;12.30;;;7.10;;
2009;SDS011;1008;47.404;8.502;2022-08-19T07:21:51;11.03;;;7.53;;
2009;SDS011;1008;47.404;8.502;2022-08-19T07:24:19;10.67;;;6.90;;
2009;SDS011;1008;47.404;8.502;2022-08-19T07:26:48;13.00;;;8.17;;
2009;SDS011;1008;47.404;8.502;2022-08-19T07:29:16;11.17;;;6.60;;
2009;SDS011;1008;47.404;8.502;2022-08-19T07:31:43;12.87;;;7.53;;
2009;SDS011;1008;47.404;8.502;2022-08-19T07:34:11;11.23;;;7.30;;
2009;SDS011;1008;47.404;8.502;2022-08-19T07:36:41;12.40;;;7.87;;
2009;SDS011;1008;47.404;8.502;2022-08-19T07:39:11;11.87;;;7.07;;
2009;SDS011;1008;47.404;8.502;2022-08-19T07:41:40;14.37;;;8.20;;
2009;SDS011;1008;47.404;8.502;2022-08-19T07:44:08;11.47;;;7.33;;
2009;SDS011;1008;47.404;8.502;2022-08-19T07:46:36;14.50;;;7.87;;
2009;SDS011;1008;47.404;8.502;2022-08-19T07:49:05;14.27;;;8.23;;
2009;SDS011;1008;47.404;8.502;2022-08-19T07:51:32;12.33;;;7.40;;
2009;SDS011;1008;47.404;8.502;2022-08-19T07:54:01;12.07;;;7.13;;
2009;SDS011;1008;47.404;8.502;2022-08-19T07:56:29;12.93;;;7.60;;
2009;SDS011;1008;47.404;8.502;2022-08-19T07:58:55;14.60;;;7.40;;
2009;SDS011;1008;47.404;8.502;2022-08-19T08:01:23;14.60;;;8.70;;
2009;SDS011;1008;47.404;8.502;2022-08-19T08:03:53;16.97;;;8.77;;
2009;SDS011;1008;47.404;8.502;2022-08-19T08:06:38;23.53;;;8.80;;
2009;SDS011;1008;47.404;8.502;2022-08-19T08:09:26;15.10;;;8.23;;
2009;SDS011;1008;47.404;8.502;2022-08-19T08:11:55;19.17;;;9.83;;
2009;SDS011;1008;47.404;8.502;2022-08-19T08:14:25;17.67;;;9.20;;
2009;SDS011;1008;47.404;8.502;2022-08-19T08:16:53;13.37;;;8.30;;
2009;SDS011;1008;47.404;8.502;2022-08-19T08:19:22;15.70;;;8.90;;
2009;SDS011;1008;47.404;8.502;2022-08-19T08:21:50;14.60;;;8.63;;
2009;SDS011;1008;47.404;8.502;2022-08-19T08:24:17;14.37;;;8.70;;
2009;SDS011;1008;47.404;8.502;2022-08-19T08:26:46;14.27;;;7.60;;
2009;SDS011;1008;47.404;8.502;2022-08-19T08:29:13;13.37;;;8.10;;
2009;SDS011;1008;47.404;8.502;2022-08-19T08:31:41;15.63;;;8.57;;
2009;SDS011;1008;47.404;8.502;2022-08-19T08:34:10;16.60;;;8.53;;
2009;SDS011;1008;47.404;8.502;2022-08-19T08:36:38;15.93;;;7.90;;
2009;SDS011;1008;47.404;8.502;2022-08-19T08:39:06;15.13;;;8.63;;
2009;SDS011;1008;47.404;8.502;2022-08-19T08:41:36;17.23;;;9.60;;
2009;SDS011;1008;47.404;8.502;2022-08-19T08:44:12;16.30;;;8.87;;
2009;SDS011;1008;47.404;8.502;2022-08-19T08:46:43;18.27;;;9.77;;
2009;SDS011;1008;47.404;8.502;2022-08-19T08:49:16;14.43;;;9.10;;
2009;SDS011;1008;47.404;8.502;2022-08-19T08:51:54;15.40;;;9.37;;
2009;SDS011;1008;47.404;8.502;2022-08-19T08:54:30;18.63;;;9.30;;
2009;SDS011;1008;47.404;8.502;2022-08-19T08:57:00;15.53;;;10.33;;
2009;SDS011;1008;47.404;8.502;2022-08-19T08:59:31;14.97;;;8.93;;
2009;SDS011;1008;47.404;8.502;2022-08-19T09:02:01;17.93;;;10.23;;
2009;SDS011;1008;47.404;8.502;2022-08-19T09:04:28;16.27;;;9.77;;
2009;SDS011;1008;47.404;8.502;2022-08-19T09:07:09;17.43;;;10.50;;
2009;SDS011;1008;47.404;8.502;2022-08-19T09:09:45;15.30;;;8.93;;
2009;SDS011;1008;47.404;8.502;2022-08-19T09:12:16;15.97;;;9.17;;
2009;SDS011;1008;47.404;8.502;2022-08-19T09:14:51;15.60;;;9.53;;
2009;SDS011;1008;47.404;8.502;2022-08-19T09:17:23;16.27;;;10.00;;
2009;SDS011;1008;47.404;8.502;2022-08-19T09:19:56;16.60;;;9.80;;
2009;SDS011;1008;47.404;8.502;2022-08-19T09:22:25;20.77;;;10.50;;
2009;SDS011;1008;47.404;8.502;2022-08-19T09:24:52;19.50;;;10.43;;
2009;SDS011;1008;47.404;8.502;2022-08-19T09:27:19;20.60;;;11.70;;
2009;SDS011;1008;47.404;8.502;2022-08-19T09:29:48;19.90;;;9.67;;
2009;SDS011;1008;47.404;8.502;2022-08-19T09:32:17;19.97;;;11.20;;
2009;SDS011;1008;47.404;8.502;2022-08-19T09:34:44;21.20;;;11.73;;
2009;SDS011;1008;47.404;8.502;2022-08-19T09:37:10;25.70;;;12.27;;
2009;SDS011;1008;47.404;8.502;2022-08-19T09:39:38;22.00;;;10.63;;
2009;SDS011;1008;47.404;8.502;2022-08-19T09:42:07;23.67;;;11.93;;
2009;SDS011;1008;47.404;8.502;2022-08-19T09:44:37;24.13;;;11.60;;
2009;SDS011;1008;47.404;8.502;2022-08-19T09:47:05;20.23;;;11.93;;
2009;SDS011;1008;47.404;8.502;2022-08-19T09:49:32;22.40;;;12.23;;
2009;SDS011;1008;47.404;8.502;2022-08-19T09:51:59;22.37;;;13.00;;
2009;SDS011;1008;47.404;8.502;2022-08-19T09:54:26;18.50;;;11.23;;
2009;SDS011;1008;47.404;8.502;2022-08-19T09:56:54;19.20;;;10.40;;
2009;SDS011;1008;47.404;8.502;2022-08-19T09:59:21;23.00;;;10.80;;
2009;SDS011;1008;47.404;8.502;2022-08-19T10:01:48;23.63;;;12.03;;
2009;SDS011;1008;47.404;8.502;2022-08-19T10:04:17;23.80;;;12.97;;
2009;SDS011;1008;47.404;8.502;2022-08-19T10:06:44;24.10;;;12.30;;
2009;SDS011;1008;47.404;8.502;2022-08-19T10:09:13;21.30;;;12.50;;
2009;SDS011;1008;47.404;8.502;2022-08-19T10:11:41;23.87;;;12.60;;
2009;SDS011;1008;47.404;8.502;2022-08-19T10:14:11;25.40;;;11.47;;
2009;SDS011;1008;47.404;8.502;2022-08-19T10:16:38;22.20;;;11.77;;
2009;SDS011;1008;47.404;8.502;2022-08-19T10:19:04;26.07;;;12.67;;
2009;SDS011;1008;47.404;8.502;2022-08-19T10:21:33;23.90;;;12.87;;
2009;SDS011;1008;47.404;8.502;2022-08-19T10:24:01;26.60;;;12.80;;
2009;SDS011;1008;47.404;8.502;2022-08-19T10:26:31;23.10;;;12.93;;
2009;SDS011;1008;47.404;8.502;2022-08-19T10:29:03;20.20;;;11.37;;
2009;SDS011;1008;47.404;8.502;2022-08-19T10:31:31;22.40;;;12.80;;
2009;SDS011;1008;47.404;8.502;2022-08-19T10:33:59;20.90;;;11.90;;
2009;SDS011;1008;47.404;8.502;2022-08-19T10:36:27;25.97;;;12.97;;
2009;SDS011;1008;47.404;8.502;2022-08-19T10:38:57;23.70;;;12.90;;
2009;SDS011;1008;47.404;8.502;2022-08-19T10:41:27;22.77;;;11.83;;
2009;SDS011;1008;47.404;8.502;2022-08-19T10:43:57;21.47;;;11.90;;
2009;SDS011;1008;47.404;8.502;2022-08-19T10:46:26;23.97;;;13.87;;
2009;SDS011;1008;47.404;8.502;2022-08-19T10:48:57;23.27;;;12.97;;
2009;SDS011;1008;47.404;8.502;2022-08-19T10:51:25;27.57;;;13.93;;
2009;SDS011;1008;47.404;8.502;2022-08-19T10:54:10;27.47;;;13.87;;
2009;SDS011;1008;47.404;8.502;2022-08-19T10:56:37;24.80;;;13.77;;
2009;SDS011;1008;47.404;8.502;2022-08-19T10:59:19;23.57;;;12.10;;
2009;SDS011;1008;47.404;8.502;2022-08-19T11:01:48;19.77;;;12.53;;
2009;SDS011;1008;47.404;8.502;2022-08-19T11:04:16;25.63;;;12.90;;
2009;SDS011;1008;47.404;8.502;2022-08-19T11:06:44;22.73;;;13.33;;
2009;SDS011;1008;47.404;8.502;2022-08-19T11:09:14;30.77;;;14.10;;
2009;SDS011;1008;47.404;8.502;2022-08-19T11:11:42;25.47;;;12.57;;
2009;SDS011;1008;47.404;8.502;2022-08-19T11:14:10;23.30;;;12.50;;
2009;SDS011;1008;47.404;8.502;2022-08-19T11:16:39;22.23;;;12.80;;
2009;SDS011;1008;47.404;8.502;2022-08-19T11:19:07;27.43;;;12.27;;
2009;SDS011;1008;47.404;8.502;2022-08-19T11:21:36;32.13;;;14.90;;
2009;SDS011;1008;47.404;8.502;2022-08-19T11:24:06;30.70;;;14.50;;
2009;SDS011;1008;47.404;8.502;2022-08-19T11:26:35;26.40;;;12.63;;
2009;SDS011;1008;47.404;8.502;2022-08-19T11:29:04;23.70;;;12.73;;
2009;SDS011;1008;47.404;8.502;2022-08-19T11:31:36;23.43;;;13.40;;
2009;SDS011;1008;47.404;8.502;2022-08-19T11:34:05;25.30;;;13.60;;
2009;SDS011;1008;47.404;8.502;2022-08-19T11:36:36;25.67;;;13.53;;
2009;SDS011;1008;47.404;8.502;2022-08-19T11:39:04;23.47;;;13.47;;
2009;SDS011;1008;47.404;8.502;2022-08-19T11:41:32;28.27;;;14.17;;
2009;SDS011;1008;47.404;8.502;2022-08-19T11:44:01;23.67;;;13.00;;
2009;SDS011;1008;47.404;8.502;2022-08-19T11:46:29;24.20;;;13.40;;
2009;SDS011;1008;47.404;8.502;2022-08-19T11:48:57;22.47;;;14.20;;
2009;SDS011;1008;47.404;8.502;2022-08-19T11:51:25;24.27;;;13.10;;
2009;SDS011;1008;47.404;8.502;2022-08-19T11:53:53;27.47;;;15.00;;
2009;SDS011;1008;47.404;8.502;2022-08-19T11:56:21;27.87;;;13.57;;
2009;SDS011;1008;47.404;8.502;2022-08-19T11:58:50;25.90;;;13.57;;
2009;SDS011;1008;47.404;8.502;2022-08-19T12:01:20;27.27;;;13.57;;
2009;SDS011;1008;47.404;8.502;2022-08-19T12:03:48;23.03;;;14.00;;
2009;SDS011;1008;47.404;8.502;2022-08-19T12:06:18;23.80;;;13.23;;
2009;SDS011;1008;47.404;8.502;2022-08-19T12:08:48;23.37;;;12.37;;
2009;SDS011;1008;47.404;8.502;2022-08-19T12:11:15;33.27;;;12.70;;
2009;SDS011;1008;47.404;8.502;2022-08-19T12:13:42;25.70;;;13.57;;
2009;SDS011;1008;47.404;8.502;2022-08-19T12:16:12;24.77;;;13.47;;
2009;SDS011;1008;47.404;8.502;2022-08-19T12:18:42;27.40;;;12.93;;
2009;SDS011;1008;47.404;8.502;2022-08-19T12:21:11;27.70;;;14.30;;
2009;SDS011;1008;47.404;8.502;2022-08-19T12:23:39;24.40;;;12.70;;
2009;SDS011;1008;47.404;8.502;2022-08-19T12:26:06;29.87;;;13.30;;
2009;SDS011;1008;47.404;8.502;2022-08-19T12:28:35;27.47;;;12.90;;
2009;SDS011;1008;47.404;8.502;2022-08-19T12:31:02;25.83;;;13.00;;
2009;SDS011;1008;47.404;8.502;2022-08-19T12:33:29;21.60;;;11.97;;
2009;SDS011;1008;47.404;8.502;2022-08-19T12:36:00;24.30;;;13.20;;
2009;SDS011;1008;47.404;8.502;2022-08-19T12:38:29;23.80;;;11.73;;
2009;SDS011;1008;47.404;8.502;2022-08-19T12:40:57;26.40;;;12.17;;
2009;SDS011;1008;47.404;8.502;2022-08-19T12:43:24;25.07;;;12.50;;
2009;SDS011;1008;47.404;8.502;2022-08-19T12:45:51;25.17;;;12.70;;
2009;SDS011;1008;47.404;8.502;2022-08-19T12:48:18;26.80;;;13.13;;
2009;SDS011;1008;47.404;8.502;2022-08-19T12:50:44;20.97;;;11.47;;
2009;SDS011;1008;47.404;8.502;2022-08-19T12:53:13;23.70;;;13.20;;
2009;SDS011;1008;47.404;8.502;2022-08-19T12:55:40;22.00;;;12.67;;
2009;SDS011;1008;47.404;8.502;2022-08-19T12:58:08;23.07;;;13.23;;
2009;SDS011;1008;47.404;8.502;2022-08-19T13:00:37;17.77;;;11.20;;
2009;SDS011;1008;47.404;8.502;2022-08-19T13:03:04;23.80;;;13.63;;
2009;SDS011;1008;47.404;8.502;2022-08-19T13:05:31;17.40;;;10.57;;
2009;SDS011;1008;47.404;8.502;2022-08-19T13:07:59;25.13;;;13.00;;
2009;SDS011;1008;47.404;8.502;2022-08-19T13:10:29;21.03;;;11.67;;
2009;SDS011;1008;47.404;8.502;2022-08-19T13:13:00;18.33;;;10.33;;
2009;SDS011;1008;47.404;8.502;2022-08-19T13:15:28;20.53;;;10.67;;
2009;SDS011;1008;47.404;8.502;2022-08-19T13:17:56;26.73;;;12.37;;
2009;SDS011;1008;47.404;8.502;2022-08-19T13:20:24;25.20;;;12.70;;
2009;SDS011;1008;47.404;8.502;2022-08-19T13:22:51;20.90;;;11.13;;
2009;SDS011;1008;47.404;8.502;2022-08-19T13:25:19;21.80;;;11.83;;
2009;SDS011;1008;47.404;8.502;2022-08-19T13:27:47;19.27;;;11.47;;
2009;SDS011;1008;47.404;8.502;2022-08-19T13:30:16;20.40;;;11.13;;
2009;SDS011;1008;47.404;8.502;2022-08-19T13:33:02;19.37;;;12.03;;
2009;SDS011;1008;47.404;8.502;2022-08-19T13:35:39;25.97;;;12.90;;
2009;SDS011;1008;47.404;8.502;2022-08-19T13:38:07;20.10;;;10.87;;
2009;SDS011;1008;47.404;8.502;2022-08-19T13:40:35;22.00;;;11.77;;
2009;SDS011;1008;47.404;8.502;2022-08-19T13:43:04;19.47;;;10.50;;
2009;SDS011;1008;47.404;8.502;2022-08-19T13:45:33;19.97;;;11.80;;
2009;SDS011;1008;47.404;8.502;2022-08-19T13:48:00;20.93;;;11.53;;
2009;SDS011;1008;47.404;8.502;2022-08-19T13:50:32;22.03;;;11.07;;
2009;SDS011;1008;47.404;8.502;2022-08-19T13:52:59;20.23;;;11.40;;
2009;SDS011;1008;47.404;8.502;2022-08-19T13:55:27;23.23;;;11.67;;
2009;SDS011;1008;47.404;8.502;2022-08-19T13:57:55;18.30;;;9.83;;
2009;SDS011;1008;47.404;8.502;2022-08-19T14:00:25;18.83;;;10.73;;
2009;SDS011;1008;47.404;8.502;2022-08-19T14:02:54;17.90;;;11.20;;
2009;SDS011;1008;47.404;8.502;2022-08-19T14:05:22;23.00;;;11.43;;
2009;SDS011;1008;47.404;8.502;2022-08-19T14:07:50;20.43;;;10.80;;
2009;SDS011;1008;47.404;8.502;2022-08-19T14:10:17;23.67;;;11.83;;
2009;SDS011;1008;47.404;8.502;2022-08-19T14:12:45;18.83;;;10.40;;
2009;SDS011;1008;47.404;8.502;2022-08-19T14:15:13;20.50;;;11.23;;
2009;SDS011;1008;47.404;8.502;2022-08-19T14:17:42;20.03;;;11.63;;
2009;SDS011;1008;47.404;8.502;2022-08-19T14:20:11;20.20;;;11.53;;
2009;SDS011;1008;47.404;8.502;2022-08-19T14:22:41;26.47;;;13.20;;
2009;SDS011;1008;47.404;8.502;2022-08-19T14:25:10;21.90;;;11.20;;
2009;SDS011;1008;47.404;8.502;2022-08-19T14:27:39;19.83;;;11.27;;
2009;SDS011;1008;47.404;8.502;2022-08-19T14:30:07;17.70;;;11.00;;
2009;SDS011;1008;47.404;8.502;2022-08-19T14:32:36;26.33;;;11.17;;
2009;SDS011;1008;47.404;8.502;2022-08-19T14:35:05;21.83;;;11.77;;
2009;SDS011;1008;47.404;8.502;2022-08-19T14:37:33;19.73;;;10.73;;
2009;SDS011;1008;47.404;8.502;2022-08-19T14:40:00;21.37;;;11.00;;
2009;SDS011;1008;47.404;8.502;2022-08-19T14:42:27;19.40;;;11.07;;
2009;SDS011;1008;47.404;8.502;2022-08-19T14:44:56;20.17;;;11.50;;
2009;SDS011;1008;47.404;8.502;2022-08-19T14:47:24;19.03;;;10.37;;
2009;SDS011;1008;47.404;8.502;2022-08-19T14:49:51;17.37;;;9.67;;
2009;SDS011;1008;47.404;8.502;2022-08-19T14:52:19;19.83;;;10.63;;
2009;SDS011;1008;47.404;8.502;2022-08-19T14:54:46;22.43;;;10.53;;
2009;SDS011;1008;47.404;8.502;2022-08-19T14:57:13;17.57;;;9.73;;
2009;SDS011;1008;47.404;8.502;2022-08-19T14:59:40;16.83;;;9.90;;
2009;SDS011;1008;47.404;8.502;2022-08-19T15:02:07;20.60;;;10.70;;
2009;SDS011;1008;47.404;8.502;2022-08-19T15:04:34;20.97;;;11.20;;